sensor_id;sensor_type;location;lat;lon;timestamp;P1;durP1;ratioP1;P2;durP2;ratioP2
46198;SDS011;31928;52.104;10.030;2023-06-22T03:38:32;4.20;;;3.85;;
46198;SDS011;31928;52.104;10.030;2023-06-22T03:40:59;6.30;;;4.60;;
46198;SDS011;31928;52.104;10.030;2023-06-22T03:43:25;5.80;;;5.15;;
46198;SDS011;31928;52.104;10.030;2023-06-22T03:45:52;6.10;;;5.50;;
46198;SDS011;31928;52.104;10.030;2023-06-22T03:48:19;6.22;;;5.32;;
46198;SDS011;31928;52.104;10.030;2023-06-22T03:50:45;10.82;;;6.35;;
46198;SDS011;31928;52.104;10.030;2023-06-22T03:53:12;9.43;;;5.28;;
46198;SDS011;31928;52.104;10.030;2023-06-22T03:55:45;6.38;;;5.78;;
46198;SDS011;31928;52.104;10.030;2023-06-22T03:58:16;5.53;;;5.03;;
46198;SDS011;31928;52.104;10.030;2023-06-22T04:00:49;5.70;;;5.00;;
46198;SDS011;31928;52.104;10.030;2023-06-22T04:03:17;6.63;;;4.68;;
46198;SDS011;31928;52.104;10.030;2023-06-22T04:05:45;5.60;;;5.15;;
46198;SDS011;31928;52.104;10.030;2023-06-22T04:08:13;5.80;;;5.25;;
46198;SDS011;31928;52.104;10.030;2023-06-22T04:10:40;7.05;;;5.95;;
46198;SDS011;31928;52.104;10.030;2023-06-22T04:13:07;5.97;;;5.38;;
46198;SDS011;31928;52.104;10.030;2023-06-22T04:15:33;9.13;;;5.57;;
46198;SDS011;31928;52.104;10.030;2023-06-22T04:18:00;6.85;;;6.07;;
46198;SDS011;31928;52.104;10.030;2023-06-22T04:20:27;7.63;;;6.40;;
46198;SDS011;31928;52.104;10.030;2023-06-22T04:22:55;6.40;;;5.03;;
46198;SDS011;31928;52.104;10.030;2023-06-22T04:25:22;6.35;;;5.80;;
46198;SDS011;31928;52.104;10.030;2023-06-22T04:27:49;5.75;;;5.25;;
46198;SDS011;31928;52.104;10.030;2023-06-22T04:30:16;5.75;;;5.25;;
46198;SDS011;31928;52.104;10.030;2023-06-22T04:32:43;6.10;;;5.60;;
46198;SDS011;31928;52.104;10.030;2023-06-22T04:35:11;5.85;;;5.28;;
46198;SDS011;31928;52.104;10.030;2023-06-22T04:37:37;5.35;;;4.95;;
46198;SDS011;31928;52.104;10.030;2023-06-22T04:40:06;5.43;;;4.93;;
46198;SDS011;31928;52.104;10.030;2023-06-22T04:42:34;6.20;;;5.70;;
46198;SDS011;31928;52.104;10.030;2023-06-22T04:45:01;5.60;;;5.13;;
46198;SDS011;31928;52.104;10.030;2023-06-22T04:47:28;6.05;;;5.43;;
46198;SDS011;31928;52.104;10.030;2023-06-22T04:49:55;5.88;;;5.38;;
46198;SDS011;31928;52.104;10.030;2023-06-22T04:52:21;5.68;;;5.00;;
46198;SDS011;31928;52.104;10.030;2023-06-22T04:54:48;6.32;;;5.57;;
46198;SDS011;31928;52.104;10.030;2023-06-22T04:57:16;5.72;;;5.18;;
46198;SDS011;31928;52.104;10.030;2023-06-22T04:59:43;5.80;;;4.82;;
46198;SDS011;31928;52.104;10.030;2023-06-22T05:02:10;5.30;;;4.80;;
46198;SDS011;31928;52.104;10.030;2023-06-22T05:04:37;5.22;;;4.82;;
46198;SDS011;31928;52.104;10.030;2023-06-22T05:07:07;6.75;;;5.50;;
46198;SDS011;31928;52.104;10.030;2023-06-22T05:09:34;5.70;;;5.28;;
46198;SDS011;31928;52.104;10.030;2023-06-22T05:12:01;6.15;;;5.55;;
46198;SDS011;31928;52.104;10.030;2023-06-22T05:14:29;6.05;;;5.53;;
46198;SDS011;31928;52.104;10.030;2023-06-22T05:16:56;5.53;;;5.03;;
46198;SDS011;31928;52.104;10.030;2023-06-22T05:19:30;6.78;;;5.35;;
46198;SDS011;31928;52.104;10.030;2023-06-22T05:22:00;6.35;;;5.75;;
46198;SDS011;31928;52.104;10.030;2023-06-22T05:24:27;6.55;;;5.93;;
46198;SDS011;31928;52.104;10.030;2023-06-22T05:26:54;7.22;;;5.57;;
46198;SDS011;31928;52.104;10.030;2023-06-22T05:29:21;6.60;;;5.75;;
46198;SDS011;31928;52.104;10.030;2023-06-22T05:31:48;8.30;;;5.85;;
46198;SDS011;31928;52.104;10.030;2023-06-22T05:34:15;5.93;;;5.43;;
46198;SDS011;31928;52.104;10.030;2023-06-22T05:36:42;7.82;;;5.85;;
46198;SDS011;31928;52.104;10.030;2023-06-22T05:39:13;6.60;;;6.00;;
46198;SDS011;31928;52.104;10.030;2023-06-22T05:41:41;6.40;;;5.78;;
46198;SDS011;31928;52.104;10.030;2023-06-22T05:44:09;6.10;;;5.55;;
46198;SDS011;31928;52.104;10.030;2023-06-22T05:46:36;6.45;;;5.50;;
46198;SDS011;31928;52.104;10.030;2023-06-22T05:49:03;6.15;;;5.45;;
46198;SDS011;31928;52.104;10.030;2023-06-22T05:51:29;7.05;;;5.60;;
46198;SDS011;31928;52.104;10.030;2023-06-22T05:53:56;6.43;;;5.55;;
46198;SDS011;31928;52.104;10.030;2023-06-22T05:56:23;14.98;;;6.63;;
46198;SDS011;31928;52.104;10.030;2023-06-22T05:58:49;6.65;;;5.88;;
46198;SDS011;31928;52.104;10.030;2023-06-22T06:01:16;6.13;;;5.57;;
46198;SDS011;31928;52.104;10.030;2023-06-22T06:03:43;6.18;;;5.63;;
46198;SDS011;31928;52.104;10.030;2023-06-22T06:06:10;5.68;;;5.18;;
46198;SDS011;31928;52.104;10.030;2023-06-22T06:08:37;5.75;;;5.25;;
46198;SDS011;31928;52.104;10.030;2023-06-22T06:11:05;6.13;;;5.63;;
46198;SDS011;31928;52.104;10.030;2023-06-22T06:13:32;5.88;;;5.38;;
46198;SDS011;31928;52.104;10.030;2023-06-22T06:15:58;5.90;;;5.38;;
46198;SDS011;31928;52.104;10.030;2023-06-22T06:18:25;6.18;;;5.57;;
46198;SDS011;31928;52.104;10.030;2023-06-22T06:20:52;9.73;;;5.90;;
46198;SDS011;31928;52.104;10.030;2023-06-22T06:23:19;6.90;;;6.13;;
46198;SDS011;31928;52.104;10.030;2023-06-22T06:25:45;6.70;;;6.20;;
46198;SDS011;31928;52.104;10.030;2023-06-22T06:28:12;6.13;;;5.65;;
46198;SDS011;31928;52.104;10.030;2023-06-22T06:30:39;7.18;;;6.53;;
46198;SDS011;31928;52.104;10.030;2023-06-22T06:33:07;6.53;;;5.88;;
46198;SDS011;31928;52.104;10.030;2023-06-22T06:35:35;6.60;;;6.00;;
46198;SDS011;31928;52.104;10.030;2023-06-22T06:38:02;7.78;;;7.13;;
46198;SDS011;31928;52.104;10.030;2023-06-22T06:40:28;6.05;;;5.55;;
46198;SDS011;31928;52.104;10.030;2023-06-22T06:42:56;5.75;;;5.32;;
46198;SDS011;31928;52.104;10.030;2023-06-22T06:45:23;7.63;;;6.80;;
46198;SDS011;31928;52.104;10.030;2023-06-22T06:47:51;6.40;;;5.90;;
46198;SDS011;31928;52.104;10.030;2023-06-22T06:50:18;6.30;;;5.80;;
46198;SDS011;31928;52.104;10.030;2023-06-22T06:52:46;6.93;;;6.43;;
46198;SDS011;31928;52.104;10.030;2023-06-22T06:55:12;7.55;;;6.82;;
46198;SDS011;31928;52.104;10.030;2023-06-22T06:57:40;7.00;;;6.40;;
46198;SDS011;31928;52.104;10.030;2023-06-22T07:00:09;6.68;;;5.97;;
46198;SDS011;31928;52.104;10.030;2023-06-22T07:02:39;6.60;;;6.00;;
46198;SDS011;31928;52.104;10.030;2023-06-22T07:05:06;7.50;;;6.65;;
46198;SDS011;31928;52.104;10.030;2023-06-22T07:07:34;6.43;;;5.78;;
46198;SDS011;31928;52.104;10.030;2023-06-22T07:10:04;6.38;;;5.78;;
46198;SDS011;31928;52.104;10.030;2023-06-22T07:12:32;6.85;;;6.20;;
46198;SDS011;31928;52.104;10.030;2023-06-22T07:15:06;6.78;;;6.18;;
46198;SDS011;31928;52.104;10.030;2023-06-22T07:17:38;6.13;;;5.63;;
46198;SDS011;31928;52.104;10.030;2023-06-22T07:20:08;7.00;;;6.45;;
46198;SDS011;31928;52.104;10.030;2023-06-22T07:22:40;6.72;;;5.90;;
46198;SDS011;31928;52.104;10.030;2023-06-22T07:25:08;6.35;;;5.75;;
46198;SDS011;31928;52.104;10.030;2023-06-22T07:27:36;6.43;;;5.82;;
46198;SDS011;31928;52.104;10.030;2023-06-22T07:30:04;7.45;;;6.60;;
46198;SDS011;31928;52.104;10.030;2023-06-22T07:32:31;6.28;;;5.82;;
46198;SDS011;31928;52.104;10.030;2023-06-22T07:34:58;7.68;;;7.00;;
46198;SDS011;31928;52.104;10.030;2023-06-22T07:37:25;7.22;;;6.57;;
46198;SDS011;31928;52.104;10.030;2023-06-22T07:39:54;6.88;;;6.28;;
46198;SDS011;31928;52.104;10.030;2023-06-22T07:42:25;6.00;;;5.45;;
46198;SDS011;31928;52.104;10.030;2023-06-22T07:44:52;6.75;;;6.18;;
46198;SDS011;31928;52.104;10.030;2023-06-22T07:47:20;6.75;;;6.05;;
46198;SDS011;31928;52.104;10.030;2023-06-22T07:49:46;6.25;;;5.75;;
46198;SDS011;31928;52.104;10.030;2023-06-22T07:52:13;6.03;;;5.50;;
46198;SDS011;31928;52.104;10.030;2023-06-22T07:54:40;6.82;;;5.93;;
46198;SDS011;31928;52.104;10.030;2023-06-22T07:57:06;6.40;;;5.95;;
46198;SDS011;31928;52.104;10.030;2023-06-22T07:59:33;8.30;;;6.05;;
46198;SDS011;31928;52.104;10.030;2023-06-22T08:02:00;6.60;;;6.03;;
46198;SDS011;31928;52.104;10.030;2023-06-22T08:04:29;5.75;;;5.28;;
46198;SDS011;31928;52.104;10.030;2023-06-22T08:06:57;6.25;;;5.75;;
46198;SDS011;31928;52.104;10.030;2023-06-22T08:09:24;6.78;;;5.57;;
46198;SDS011;31928;52.104;10.030;2023-06-22T08:11:50;6.50;;;5.97;;
46198;SDS011;31928;52.104;10.030;2023-06-22T08:14:17;6.18;;;5.60;;
46198;SDS011;31928;52.104;10.030;2023-06-22T08:16:44;5.35;;;4.95;;
46198;SDS011;31928;52.104;10.030;2023-06-22T08:19:10;6.28;;;5.63;;
46198;SDS011;31928;52.104;10.030;2023-06-22T08:21:37;7.55;;;5.15;;
46198;SDS011;31928;52.104;10.030;2023-06-22T08:24:04;6.57;;;5.80;;
46198;SDS011;31928;52.104;10.030;2023-06-22T08:26:31;6.90;;;6.30;;
46198;SDS011;31928;52.104;10.030;2023-06-22T08:29:02;8.07;;;5.55;;
46198;SDS011;31928;52.104;10.030;2023-06-22T08:31:30;8.00;;;5.93;;
46198;SDS011;31928;52.104;10.030;2023-06-22T08:33:57;5.68;;;5.10;;
46198;SDS011;31928;52.104;10.030;2023-06-22T08:36:23;6.00;;;5.50;;
46198;SDS011;31928;52.104;10.030;2023-06-22T08:38:50;7.05;;;6.45;;
46198;SDS011;31928;52.104;10.030;2023-06-22T08:41:17;5.72;;;5.32;;
46198;SDS011;31928;52.104;10.030;2023-06-22T08:43:44;6.88;;;6.15;;
46198;SDS011;31928;52.104;10.030;2023-06-22T08:46:11;11.35;;;6.28;;
46198;SDS011;31928;52.104;10.030;2023-06-22T08:48:37;6.32;;;5.72;;
46198;SDS011;31928;52.104;10.030;2023-06-22T08:51:04;6.53;;;5.93;;
46198;SDS011;31928;52.104;10.030;2023-06-22T08:53:31;6.38;;;5.88;;
46198;SDS011;31928;52.104;10.030;2023-06-22T08:55:57;5.97;;;5.50;;
46198;SDS011;31928;52.104;10.030;2023-06-22T08:58:24;6.20;;;5.60;;
46198;SDS011;31928;52.104;10.030;2023-06-22T09:00:51;6.78;;;6.18;;
46198;SDS011;31928;52.104;10.030;2023-06-22T09:03:18;7.10;;;6.40;;
46198;SDS011;31928;52.104;10.030;2023-06-22T09:05:47;6.63;;;6.13;;
46198;SDS011;31928;52.104;10.030;2023-06-22T09:08:14;7.32;;;6.63;;
46198;SDS011;31928;52.104;10.030;2023-06-22T09:10:40;7.43;;;6.60;;
46198;SDS011;31928;52.104;10.030;2023-06-22T09:13:07;7.07;;;6.47;;
46198;SDS011;31928;52.104;10.030;2023-06-22T09:15:34;6.97;;;6.38;;
46198;SDS011;31928;52.104;10.030;2023-06-22T09:18:01;7.22;;;6.60;;
46198;SDS011;31928;52.104;10.030;2023-06-22T09:20:28;7.50;;;6.70;;
46198;SDS011;31928;52.104;10.030;2023-06-22T09:22:55;7.95;;;7.25;;
46198;SDS011;31928;52.104;10.030;2023-06-22T09:25:21;7.45;;;6.85;;
46198;SDS011;31928;52.104;10.030;2023-06-22T09:27:48;7.25;;;6.65;;
46198;SDS011;31928;52.104;10.030;2023-06-22T09:30:15;7.28;;;6.60;;
46198;SDS011;31928;52.104;10.030;2023-06-22T09:32:41;7.30;;;6.60;;
46198;SDS011;31928;52.104;10.030;2023-06-22T09:35:10;8.43;;;7.03;;
46198;SDS011;31928;52.104;10.030;2023-06-22T09:37:42;7.13;;;6.53;;
46198;SDS011;31928;52.104;10.030;2023-06-22T09:40:08;7.38;;;6.40;;
46198;SDS011;31928;52.104;10.030;2023-06-22T09:42:37;7.22;;;6.63;;
46198;SDS011;31928;52.104;10.030;2023-06-22T09:45:05;8.68;;;7.85;;
46198;SDS011;31928;52.104;10.030;2023-06-22T09:47:32;7.15;;;6.03;;
46198;SDS011;31928;52.104;10.030;2023-06-22T09:49:59;8.30;;;7.55;;
46198;SDS011;31928;52.104;10.030;2023-06-22T09:52:26;8.95;;;8.15;;
46198;SDS011;31928;52.104;10.030;2023-06-22T09:55:12;7.30;;;6.70;;
46198;SDS011;31928;52.104;10.030;2023-06-22T09:57:38;8.13;;;7.50;;
46198;SDS011;31928;52.104;10.030;2023-06-22T10:00:05;7.80;;;7.10;;
46198;SDS011;31928;52.104;10.030;2023-06-22T10:02:35;7.05;;;6.53;;
46198;SDS011;31928;52.104;10.030;2023-06-22T10:05:02;7.05;;;6.55;;
46198;SDS011;31928;52.104;10.030;2023-06-22T10:07:29;7.30;;;6.70;;
46198;SDS011;31928;52.104;10.030;2023-06-22T10:09:56;7.20;;;6.60;;
46198;SDS011;31928;52.104;10.030;2023-06-22T10:12:23;7.80;;;7.15;;
46198;SDS011;31928;52.104;10.030;2023-06-22T10:14:49;7.75;;;6.97;;
46198;SDS011;31928;52.104;10.030;2023-06-22T10:17:17;7.60;;;6.90;;
46198;SDS011;31928;52.104;10.030;2023-06-22T10:19:43;7.50;;;6.82;;
46198;SDS011;31928;52.104;10.030;2023-06-22T10:22:10;7.85;;;7.15;;
46198;SDS011;31928;52.104;10.030;2023-06-22T10:24:37;7.90;;;7.20;;
46198;SDS011;31928;52.104;10.030;2023-06-22T10:27:04;7.65;;;6.95;;
46198;SDS011;31928;52.104;10.030;2023-06-22T10:29:31;8.27;;;7.57;;
46198;SDS011;31928;52.104;10.030;2023-06-22T10:31:58;8.25;;;7.55;;
46198;SDS011;31928;52.104;10.030;2023-06-22T10:34:25;8.60;;;7.90;;
46198;SDS011;31928;52.104;10.030;2023-06-22T10:36:51;7.22;;;6.63;;
46198;SDS011;31928;52.104;10.030;2023-06-22T10:39:18;8.25;;;7.55;;
46198;SDS011;31928;52.104;10.030;2023-06-22T10:41:45;8.20;;;7.53;;
46198;SDS011;31928;52.104;10.030;2023-06-22T10:44:11;8.05;;;7.32;;
46198;SDS011;31928;52.104;10.030;2023-06-22T10:46:38;8.38;;;7.68;;
46198;SDS011;31928;52.104;10.030;2023-06-22T10:49:05;7.85;;;7.25;;
46198;SDS011;31928;52.104;10.030;2023-06-22T10:51:32;7.80;;;7.20;;
46198;SDS011;31928;52.104;10.030;2023-06-22T10:53:59;8.20;;;7.32;;
46198;SDS011;31928;52.104;10.030;2023-06-22T10:56:25;8.43;;;7.63;;
46198;SDS011;31928;52.104;10.030;2023-06-22T10:58:52;9.10;;;8.40;;
46198;SDS011;31928;52.104;10.030;2023-06-22T11:01:20;7.85;;;7.25;;
46198;SDS011;31928;52.104;10.030;2023-06-22T11:04:01;8.43;;;7.72;;
46198;SDS011;31928;52.104;10.030;2023-06-22T11:06:28;7.55;;;6.78;;
46198;SDS011;31928;52.104;10.030;2023-06-22T11:08:55;8.98;;;8.18;;
46198;SDS011;31928;52.104;10.030;2023-06-22T11:11:31;7.88;;;7.13;;
46198;SDS011;31928;52.104;10.030;2023-06-22T11:13:58;7.93;;;7.32;;
46198;SDS011;31928;52.104;10.030;2023-06-22T11:16:25;7.97;;;7.38;;
46198;SDS011;31928;52.104;10.030;2023-06-22T11:18:52;8.20;;;7.53;;
46198;SDS011;31928;52.104;10.030;2023-06-22T11:21:18;8.13;;;7.53;;
46198;SDS011;31928;52.104;10.030;2023-06-22T11:23:45;7.95;;;7.30;;
46198;SDS011;31928;52.104;10.030;2023-06-22T11:26:12;8.35;;;7.65;;
46198;SDS011;31928;52.104;10.030;2023-06-22T11:28:38;7.47;;;6.85;;
46198;SDS011;31928;52.104;10.030;2023-06-22T11:31:05;8.45;;;7.75;;
46198;SDS011;31928;52.104;10.030;2023-06-22T11:33:50;7.95;;;7.15;;
46198;SDS011;31928;52.104;10.030;2023-06-22T11:36:17;7.05;;;6.53;;
46198;SDS011;31928;52.104;10.030;2023-06-22T11:38:45;7.75;;;7.15;;
46198;SDS011;31928;52.104;10.030;2023-06-22T11:41:11;6.40;;;5.90;;
46198;SDS011;31928;52.104;10.030;2023-06-22T11:43:38;7.75;;;7.10;;
46198;SDS011;31928;52.104;10.030;2023-06-22T11:46:05;7.60;;;7.00;;
46198;SDS011;31928;52.104;10.030;2023-06-22T11:48:32;8.48;;;7.68;;
46198;SDS011;31928;52.104;10.030;2023-06-22T11:50:59;7.72;;;7.03;;
46198;SDS011;31928;52.104;10.030;2023-06-22T11:53:26;8.35;;;7.72;;
46198;SDS011;31928;52.104;10.030;2023-06-22T11:55:53;7.50;;;6.90;;
46198;SDS011;31928;52.104;10.030;2023-06-22T11:58:21;7.50;;;6.80;;
46198;SDS011;31928;52.104;10.030;2023-06-22T12:00:48;7.82;;;7.22;;
46198;SDS011;31928;52.104;10.030;2023-06-22T12:03:18;7.03;;;6.53;;
46198;SDS011;31928;52.104;10.030;2023-06-22T12:05:46;8.13;;;7.50;;
46198;SDS011;31928;52.104;10.030;2023-06-22T12:08:12;7.78;;;7.18;;
46198;SDS011;31928;52.104;10.030;2023-06-22T12:10:40;8.02;;;7.43;;
46198;SDS011;31928;52.104;10.030;2023-06-22T12:13:07;7.78;;;7.18;;
46198;SDS011;31928;52.104;10.030;2023-06-22T12:15:34;7.75;;;7.05;;
46198;SDS011;31928;52.104;10.030;2023-06-22T12:18:00;8.13;;;7.53;;
46198;SDS011;31928;52.104;10.030;2023-06-22T12:20:27;8.23;;;7.43;;
46198;SDS011;31928;52.104;10.030;2023-06-22T12:22:55;7.45;;;6.90;;
46198;SDS011;31928;52.104;10.030;2023-06-22T12:25:24;7.18;;;6.57;;
46198;SDS011;31928;52.104;10.030;2023-06-22T12:27:51;7.05;;;6.55;;
46198;SDS011;31928;52.104;10.030;2023-06-22T12:30:18;6.65;;;6.15;;
46198;SDS011;31928;52.104;10.030;2023-06-22T12:32:45;6.65;;;6.15;;
46198;SDS011;31928;52.104;10.030;2023-06-22T12:35:11;6.05;;;5.60;;
46198;SDS011;31928;52.104;10.030;2023-06-22T12:37:43;6.70;;;6.10;;
46198;SDS011;31928;52.104;10.030;2023-06-22T12:40:10;6.38;;;5.93;;
46198;SDS011;31928;52.104;10.030;2023-06-22T12:42:37;6.68;;;6.07;;
46198;SDS011;31928;52.104;10.030;2023-06-22T12:45:04;6.30;;;5.80;;
46198;SDS011;31928;52.104;10.030;2023-06-22T12:47:31;5.85;;;5.40;;
46198;SDS011;31928;52.104;10.030;2023-06-22T12:49:58;6.38;;;5.88;;
46198;SDS011;31928;52.104;10.030;2023-06-22T12:52:25;6.07;;;5.68;;
46198;SDS011;31928;52.104;10.030;2023-06-22T12:54:52;6.20;;;5.70;;
46198;SDS011;31928;52.104;10.030;2023-06-22T12:57:21;7.07;;;6.50;;
46198;SDS011;31928;52.104;10.030;2023-06-22T12:59:47;6.60;;;6.10;;
46198;SDS011;31928;52.104;10.030;2023-06-22T13:02:14;6.82;;;6.22;;
46198;SDS011;31928;52.104;10.030;2023-06-22T13:04:41;6.70;;;6.20;;
46198;SDS011;31928;52.104;10.030;2023-06-22T13:07:09;7.47;;;6.88;;
46198;SDS011;31928;52.104;10.030;2023-06-22T13:09:48;8.68;;;7.30;;
46198;SDS011;31928;52.104;10.030;2023-06-22T13:12:19;6.70;;;6.20;;
46198;SDS011;31928;52.104;10.030;2023-06-22T13:14:48;6.55;;;5.95;;
46198;SDS011;31928;52.104;10.030;2023-06-22T13:17:15;7.03;;;6.43;;
46198;SDS011;31928;52.104;10.030;2023-06-22T13:19:42;6.80;;;6.30;;
46198;SDS011;31928;52.104;10.030;2023-06-22T13:22:25;6.82;;;6.22;;
46198;SDS011;31928;52.104;10.030;2023-06-22T13:24:59;7.43;;;6.82;;
46198;SDS011;31928;52.104;10.030;2023-06-22T13:27:26;7.20;;;6.70;;
46198;SDS011;31928;52.104;10.030;2023-06-22T13:29:53;8.50;;;7.90;;
46198;SDS011;31928;52.104;10.030;2023-06-22T13:32:20;6.75;;;6.25;;
46198;SDS011;31928;52.104;10.030;2023-06-22T13:34:46;8.20;;;7.50;;
46198;SDS011;31928;52.104;10.030;2023-06-22T13:37:13;6.80;;;6.30;;
46198;SDS011;31928;52.104;10.030;2023-06-22T13:39:40;7.57;;;6.97;;
46198;SDS011;31928;52.104;10.030;2023-06-22T13:42:07;7.10;;;6.60;;
46198;SDS011;31928;52.104;10.030;2023-06-22T13:44:34;7.75;;;7.15;;
46198;SDS011;31928;52.104;10.030;2023-06-22T13:47:01;7.05;;;6.55;;
46198;SDS011;31928;52.104;10.030;2023-06-22T13:49:28;8.15;;;7.38;;
46198;SDS011;31928;52.104;10.030;2023-06-22T13:51:55;7.43;;;6.93;;
46198;SDS011;31928;52.104;10.030;2023-06-22T13:54:21;7.85;;;7.25;;
46198;SDS011;31928;52.104;10.030;2023-06-22T13:56:51;8.65;;;8.05;;
46198;SDS011;31928;52.104;10.030;2023-06-22T13:59:18;7.97;;;7.38;;
46198;SDS011;31928;52.104;10.030;2023-06-22T14:01:46;8.35;;;7.65;;
46198;SDS011;31928;52.104;10.030;2023-06-22T14:04:13;7.38;;;6.78;;
46198;SDS011;31928;52.104;10.030;2023-06-22T14:06:39;7.78;;;7.07;;
46198;SDS011;31928;52.104;10.030;2023-06-22T14:09:06;8.27;;;7.55;;
46198;SDS011;31928;52.104;10.030;2023-06-22T14:11:33;7.70;;;7.10;;
46198;SDS011;31928;52.104;10.030;2023-06-22T14:14:00;8.13;;;7.53;;
46198;SDS011;31928;52.104;10.030;2023-06-22T14:16:26;7.90;;;7.20;;
46198;SDS011;31928;52.104;10.030;2023-06-22T14:18:53;8.05;;;7.45;;
46198;SDS011;31928;52.104;10.030;2023-06-22T14:21:23;8.00;;;7.30;;
46198;SDS011;31928;52.104;10.030;2023-06-22T14:23:50;7.57;;;7.07;;
46198;SDS011;31928;52.104;10.030;2023-06-22T14:26:16;9.00;;;8.25;;
46198;SDS011;31928;52.104;10.030;2023-06-22T14:28:46;8.20;;;7.57;;
46198;SDS011;31928;52.104;10.030;2023-06-22T14:31:15;8.32;;;7.72;;
46198;SDS011;31928;52.104;10.030;2023-06-22T14:33:46;7.72;;;7.20;;
46198;SDS011;31928;52.104;10.030;2023-06-22T14:36:14;7.70;;;7.10;;
46198;SDS011;31928;52.104;10.030;2023-06-22T14:38:42;8.00;;;7.40;;
46198;SDS011;31928;52.104;10.030;2023-06-22T14:41:08;7.88;;;7.28;;
46198;SDS011;31928;52.104;10.030;2023-06-22T14:43:44;7.40;;;6.90;;
46198;SDS011;31928;52.104;10.030;2023-06-22T14:46:15;8.10;;;7.40;;
46198;SDS011;31928;52.104;10.030;2023-06-22T14:48:42;8.10;;;7.45;;
46198;SDS011;31928;52.104;10.030;2023-06-22T14:51:10;8.27;;;7.68;;
46198;SDS011;31928;52.104;10.030;2023-06-22T14:53:42;8.07;;;7.32;;
46198;SDS011;31928;52.104;10.030;2023-06-22T14:56:10;8.25;;;7.65;;
46198;SDS011;31928;52.104;10.030;2023-06-22T14:58:40;7.85;;;7.25;;
46198;SDS011;31928;52.104;10.030;2023-06-22T15:01:07;8.45;;;7.78;;
46198;SDS011;31928;52.104;10.030;2023-06-22T15:03:37;7.50;;;6.90;;
46198;SDS011;31928;52.104;10.030;2023-06-22T15:06:04;8.02;;;7.43;;
46198;SDS011;31928;52.104;10.030;2023-06-22T15:08:31;7.43;;;6.85;;
46198;SDS011;31928;52.104;10.030;2023-06-22T15:11:00;8.75;;;8.05;;
46198;SDS011;31928;52.104;10.030;2023-06-22T15:13:29;8.05;;;7.30;;
46198;SDS011;31928;52.104;10.030;2023-06-22T15:16:00;7.75;;;7.15;;
46198;SDS011;31928;52.104;10.030;2023-06-22T15:18:30;7.90;;;7.30;;
46198;SDS011;31928;52.104;10.030;2023-06-22T15:20:57;8.23;;;7.43;;
46198;SDS011;31928;52.104;10.030;2023-06-22T15:23:25;8.10;;;7.50;;
46198;SDS011;31928;52.104;10.030;2023-06-22T15:25:52;7.70;;;7.05;;
46198;SDS011;31928;52.104;10.030;2023-06-22T15:28:19;7.45;;;6.88;;
46198;SDS011;31928;52.104;10.030;2023-06-22T15:30:50;8.90;;;8.15;;
46198;SDS011;31928;52.104;10.030;2023-06-22T15:33:18;7.63;;;7.00;;
46198;SDS011;31928;52.104;10.030;2023-06-22T15:35:45;7.47;;;6.80;;
46198;SDS011;31928;52.104;10.030;2023-06-22T15:38:12;6.90;;;6.40;;
46198;SDS011;31928;52.104;10.030;2023-06-22T15:40:38;7.88;;;7.20;;
46198;SDS011;31928;52.104;10.030;2023-06-22T15:43:05;7.72;;;7.13;;
46198;SDS011;31928;52.104;10.030;2023-06-22T15:45:32;8.57;;;7.80;;
46198;SDS011;31928;52.104;10.030;2023-06-22T15:47:58;9.75;;;8.63;;
46198;SDS011;31928;52.104;10.030;2023-06-22T15:50:25;12.20;;;8.27;;
46198;SDS011;31928;52.104;10.030;2023-06-22T15:52:52;8.50;;;7.70;;
46198;SDS011;31928;52.104;10.030;2023-06-22T15:55:19;10.68;;;5.72;;
46198;SDS011;31928;52.104;10.030;2023-06-22T15:57:45;7.88;;;3.22;;
46198;SDS011;31928;52.104;10.030;2023-06-22T16:00:14;6.80;;;3.00;;
46198;SDS011;31928;52.104;10.030;2023-06-22T16:02:43;3.50;;;3.20;;
46198;SDS011;31928;52.104;10.030;2023-06-22T16:05:11;5.03;;;3.20;;
46198;SDS011;31928;52.104;10.030;2023-06-22T16:07:38;3.20;;;2.90;;
46198;SDS011;31928;52.104;10.030;2023-06-22T16:10:05;3.55;;;3.25;;
46198;SDS011;31928;52.104;10.030;2023-06-22T16:12:33;3.15;;;2.92;;
46198;SDS011;31928;52.104;10.030;2023-06-22T16:15:04;2.40;;;2.20;;
46198;SDS011;31928;52.104;10.030;2023-06-22T16:17:31;2.58;;;2.38;;
46198;SDS011;31928;52.104;10.030;2023-06-22T16:19:58;3.45;;;2.83;;
46198;SDS011;31928;52.104;10.030;2023-06-22T16:22:26;2.20;;;2.00;;
46198;SDS011;31928;52.104;10.030;2023-06-22T16:24:53;2.17;;;1.98;;
46198;SDS011;31928;52.104;10.030;2023-06-22T16:27:22;3.72;;;2.45;;
46198;SDS011;31928;52.104;10.030;2023-06-22T16:29:51;3.78;;;3.22;;
46198;SDS011;31928;52.104;10.030;2023-06-22T16:32:18;3.60;;;3.05;;
46198;SDS011;31928;52.104;10.030;2023-06-22T16:34:44;3.97;;;2.70;;
46198;SDS011;31928;52.104;10.030;2023-06-22T16:37:12;2.30;;;2.10;;
46198;SDS011;31928;52.104;10.030;2023-06-22T16:39:39;3.08;;;2.80;;
46198;SDS011;31928;52.104;10.030;2023-06-22T16:42:06;4.72;;;4.32;;
46198;SDS011;31928;52.104;10.030;2023-06-22T16:44:33;5.53;;;5.03;;
46198;SDS011;31928;52.104;10.030;2023-06-22T16:47:01;6.82;;;6.05;;
46198;SDS011;31928;52.104;10.030;2023-06-22T16:49:28;6.03;;;5.57;;
46198;SDS011;31928;52.104;10.030;2023-06-22T16:51:55;7.57;;;6.97;;
46198;SDS011;31928;52.104;10.030;2023-06-22T16:54:22;7.43;;;6.82;;
46198;SDS011;31928;52.104;10.030;2023-06-22T16:56:50;7.95;;;7.32;;
46198;SDS011;31928;52.104;10.030;2023-06-22T16:59:16;8.82;;;7.97;;
46198;SDS011;31928;52.104;10.030;2023-06-22T17:01:48;8.90;;;8.10;;
46198;SDS011;31928;52.104;10.030;2023-06-22T17:04:18;7.72;;;7.13;;
46198;SDS011;31928;52.104;10.030;2023-06-22T17:06:53;7.72;;;7.03;;
46198;SDS011;31928;52.104;10.030;2023-06-22T17:09:25;7.45;;;6.85;;
46198;SDS011;31928;52.104;10.030;2023-06-22T17:11:53;7.28;;;6.68;;
46198;SDS011;31928;52.104;10.030;2023-06-22T17:14:21;7.25;;;6.68;;
46198;SDS011;31928;52.104;10.030;2023-06-22T17:16:48;8.15;;;7.45;;
46198;SDS011;31928;52.104;10.030;2023-06-22T17:19:15;8.00;;;7.35;;
46198;SDS011;31928;52.104;10.030;2023-06-22T17:21:43;8.45;;;7.70;;
46198;SDS011;31928;52.104;10.030;2023-06-22T17:24:15;8.93;;;7.35;;
46198;SDS011;31928;52.104;10.030;2023-06-22T17:26:46;7.57;;;6.97;;
46198;SDS011;31928;52.104;10.030;2023-06-22T17:29:18;7.60;;;7.00;;
46198;SDS011;31928;52.104;10.030;2023-06-22T17:31:46;8.88;;;6.85;;
46198;SDS011;31928;52.104;10.030;2023-06-22T17:34:16;7.43;;;6.82;;
46198;SDS011;31928;52.104;10.030;2023-06-22T17:36:47;7.88;;;7.00;;
46198;SDS011;31928;52.104;10.030;2023-06-22T17:39:19;8.60;;;7.90;;
46198;SDS011;31928;52.104;10.030;2023-06-22T17:41:48;7.22;;;6.53;;
46198;SDS011;31928;52.104;10.030;2023-06-22T17:46:53;6.47;;;5.88;;
46198;SDS011;31928;52.104;10.030;2023-06-22T17:49:21;10.20;;;6.47;;
46198;SDS011;31928;52.104;10.030;2023-06-22T17:51:51;6.65;;;5.65;;
46198;SDS011;31928;52.104;10.030;2023-06-22T17:54:19;6.45;;;5.95;;
46198;SDS011;31928;52.104;10.030;2023-06-22T17:57:00;6.25;;;5.70;;
46198;SDS011;31928;52.104;10.030;2023-06-22T17:59:30;8.77;;;5.97;;
46198;SDS011;31928;52.104;10.030;2023-06-22T18:02:00;7.78;;;5.97;;
46198;SDS011;31928;52.104;10.030;2023-06-22T18:04:32;11.13;;;6.13;;
46198;SDS011;31928;52.104;10.030;2023-06-22T18:06:59;6.60;;;6.07;;
46198;SDS011;31928;52.104;10.030;2023-06-22T18:09:27;7.28;;;6.68;;
46198;SDS011;31928;52.104;10.030;2023-06-22T18:11:55;5.70;;;5.20;;
46198;SDS011;31928;52.104;10.030;2023-06-22T18:14:27;6.80;;;6.07;;
46198;SDS011;31928;52.104;10.030;2023-06-22T18:16:54;6.68;;;6.18;;